createdAt,value
2018-04-02T00:00:45.244Z,32.50
2018-04-02T00:03:12.794Z,34.47
2018-04-02T00:05:41.497Z,36.07
2018-04-02T00:08:09.069Z,33.90
2018-04-02T00:10:36.675Z,32.70
2018-04-02T00:13:04.215Z,33.77
2018-04-02T00:15:31.763Z,32.40
2018-04-02T00:17:59.345Z,32.07
2018-04-02T00:20:26.925Z,31.80
2018-04-02T00:22:54.483Z,33.50
2018-04-02T00:25:22.052Z,32.07
2018-04-02T00:27:49.591Z,32.97
2018-04-02T00:30:17.571Z,32.07
2018-04-02T00:32:45.111Z,32.53
2018-04-02T00:35:12.673Z,30.40
2018-04-02T00:37:40.296Z,32.40
2018-04-02T00:40:07.845Z,32.90
2018-04-02T00:42:35.387Z,34.20
2018-04-02T00:45:02.989Z,31.00
2018-04-02T00:47:30.545Z,31.63
2018-04-02T00:49:58.111Z,32.70
2018-04-02T00:52:25.680Z,32.93
2018-04-02T00:54:53.230Z,30.63
2018-04-02T00:57:21.193Z,33.70
2018-04-02T00:59:48.807Z,32.17
2018-04-02T01:02:16.368Z,33.00
2018-04-02T01:04:43.947Z,36.67
2018-04-02T01:07:11.616Z,32.27
2018-04-02T01:09:39.218Z,37.23
2018-04-02T01:12:07.866Z,35.60
2018-04-02T01:14:35.423Z,32.17
2018-04-02T01:17:03.020Z,32.77
2018-04-02T01:19:30.558Z,35.13
2018-04-02T01:21:58.109Z,32.97
2018-04-02T01:24:25.684Z,33.20
2018-04-02T01:26:53.245Z,34.17
2018-04-02T01:29:20.818Z,32.13
2018-04-02T01:31:48.386Z,33.00
2018-04-02T01:34:15.992Z,31.37
2018-04-02T01:36:45.107Z,31.73
2018-04-02T01:39:12.647Z,31.90
2018-04-02T01:41:40.225Z,31.43
2018-04-02T01:44:07.794Z,34.73
2018-04-02T01:46:35.724Z,34.60
2018-04-02T01:49:03.273Z,32.70
2018-04-02T01:51:30.857Z,32.83
2018-04-02T01:53:58.854Z,34.00
2018-04-02T01:56:26.407Z,31.77
2018-04-02T01:58:53.951Z,32.17
2018-04-02T02:01:21.880Z,32.40
2018-04-02T02:03:49.450Z,33.27
2018-04-02T02:06:17.018Z,30.80
2018-04-02T02:08:44.633Z,30.87
2018-04-02T02:11:12.175Z,33.00
2018-04-02T02:13:39.738Z,34.17
2018-04-02T02:16:07.334Z,36.07
2018-04-02T02:18:34.882Z,34.13
2018-04-02T02:21:02.878Z,35.17
2018-04-02T02:23:30.436Z,33.40
2018-04-02T02:25:57.994Z,32.00
2018-04-02T02:28:25.595Z,32.73
2018-04-02T02:30:53.149Z,32.93
2018-04-02T02:33:20.690Z,32.57
2018-04-02T02:35:48.279Z,32.47
2018-04-02T02:38:15.866Z,36.83
2018-04-02T02:40:43.528Z,36.90
2018-04-02T02:43:11.090Z,37.63
2018-04-02T02:45:38.672Z,38.47
2018-04-02T02:48:06.709Z,36.27
2018-04-02T02:50:34.267Z,38.77
2018-04-02T02:53:01.840Z,37.70
2018-04-02T02:55:29.449Z,36.60
2018-04-02T02:57:57.036Z,36.90
2018-04-02T03:00:24.587Z,36.77
2018-04-02T03:02:52.165Z,37.43
2018-04-02T03:05:20.132Z,44.00
2018-04-02T03:07:47.705Z,44.20
2018-04-02T03:10:15.255Z,42.63
2018-04-02T03:12:42.853Z,46.63
2018-04-02T03:15:10.396Z,48.90
2018-04-02T03:17:37.961Z,45.00
2018-04-02T03:20:05.581Z,45.23
2018-04-02T03:22:33.144Z,43.60
2018-04-02T03:25:00.709Z,44.50
2018-04-02T03:27:28.303Z,46.57
2018-04-02T03:29:55.872Z,42.03
2018-04-02T03:32:23.432Z,44.63
2018-04-02T03:34:51.395Z,46.50
2018-04-02T03:37:18.966Z,50.87
2018-04-02T03:39:46.516Z,51.10
2018-04-02T03:42:14.108Z,52.00
2018-04-02T03:44:41.664Z,51.23
2018-04-02T03:47:09.248Z,50.90
2018-04-02T03:49:36.874Z,53.97
2018-04-02T03:52:04.457Z,46.83
2018-04-02T03:54:32.052Z,48.90
2018-04-02T03:57:00.024Z,52.30
2018-04-02T03:59:27.608Z,54.90
2018-04-02T04:01:55.163Z,54.43
2018-04-02T04:04:22.763Z,50.97
2018-04-02T04:06:50.336Z,51.17
2018-04-02T04:09:17.902Z,52.73
2018-04-02T04:11:45.493Z,49.53
2018-04-02T04:14:13.062Z,52.50
2018-04-02T04:16:41.055Z,57.03
2018-04-02T04:19:08.606Z,55.40
2018-04-02T04:21:36.186Z,56.47
2018-04-02T04:24:03.837Z,61.87
2018-04-02T04:26:31.414Z,59.13
2018-04-02T04:28:58.972Z,60.03
2018-04-02T04:31:26.678Z,62.50
2018-04-02T04:33:54.251Z,57.73
2018-04-02T04:36:21.812Z,62.37
2018-04-02T04:38:49.426Z,63.80
2018-04-02T04:41:16.969Z,66.50
2018-04-02T04:43:44.524Z,65.67
2018-04-02T04:46:12.109Z,61.40
2018-04-02T04:48:39.725Z,65.50
2018-04-02T04:51:07.333Z,60.93
2018-04-02T04:53:34.887Z,61.10
2018-04-02T04:56:02.503Z,60.67
2018-04-02T04:58:30.062Z,61.73
2018-04-02T05:00:57.612Z,63.70
2018-04-02T05:03:25.521Z,66.30
2018-04-02T05:05:53.091Z,65.77
2018-04-02T05:08:20.641Z,63.20
2018-04-02T05:10:48.590Z,69.27
2018-04-02T05:13:16.154Z,77.50
2018-04-02T05:15:43.713Z,76.63
2018-04-02T05:18:11.322Z,77.17
2018-04-02T05:20:38.864Z,74.93
2018-04-02T05:23:06.421Z,81.10
2018-04-02T05:25:34.032Z,80.70
2018-04-02T05:28:01.601Z,76.00
2018-04-02T05:30:29.156Z,92.97
2018-04-02T05:32:56.754Z,93.00
2018-04-02T05:35:24.342Z,104.43
2018-04-02T05:37:51.905Z,110.77
2018-04-02T05:40:19.478Z,112.57
2018-04-02T05:42:47.461Z,114.00
2018-04-02T05:45:15.064Z,117.67
2018-04-02T05:47:42.601Z,118.17
2018-04-02T05:50:10.220Z,117.93
2018-04-02T05:52:37.780Z,125.50
2018-04-02T05:55:05.352Z,121.90
2018-04-02T05:57:32.959Z,121.07
2018-04-02T06:00:00.530Z,113.13
2018-04-02T06:02:28.093Z,125.67
2018-04-02T06:04:56.033Z,122.53
2018-04-02T06:07:23.605Z,116.50
2018-04-02T06:09:51.163Z,116.20
2018-04-02T06:12:18.785Z,116.70
2018-04-02T06:14:46.342Z,112.00
2018-04-02T06:17:13.896Z,110.40
2018-04-02T06:19:41.500Z,110.07
2018-04-02T06:22:09.056Z,106.30
2018-04-02T06:24:36.599Z,104.43
2018-04-02T06:27:04.432Z,113.33
2018-04-02T06:29:32.004Z,106.07
2018-04-02T06:31:59.599Z,107.07
2018-04-02T06:34:27.197Z,102.13
2018-04-02T06:36:54.759Z,101.80
2018-04-02T06:39:22.361Z,93.93
2018-04-02T06:41:49.903Z,94.83
2018-04-02T06:44:17.517Z,99.27
2018-04-02T06:46:45.058Z,99.90
2018-04-02T06:49:12.621Z,103.07
2018-04-02T06:51:40.623Z,93.47
2018-04-02T06:54:08.587Z,92.53
2018-04-02T06:56:36.151Z,98.77
2018-04-02T06:59:04.173Z,100.03
2018-04-02T07:01:31.732Z,106.87
2018-04-02T07:03:59.300Z,107.30
2018-04-02T07:06:27.302Z,106.50
2018-04-02T07:08:54.866Z,101.30
2018-04-02T07:11:22.424Z,101.70
2018-04-02T07:13:50.016Z,104.40
2018-04-02T07:16:17.582Z,99.07
2018-04-02T07:18:45.613Z,104.80
2018-04-02T07:21:13.159Z,99.60
2018-04-02T07:23:40.721Z,101.13
2018-04-02T07:26:08.327Z,99.50
2018-04-02T07:28:35.894Z,100.77
2018-04-02T07:31:03.455Z,105.03
2018-04-02T07:33:31.075Z,103.03
2018-04-02T07:35:58.855Z,102.77
2018-04-02T07:38:26.405Z,104.03
2018-04-02T07:40:54.026Z,104.50
2018-04-02T07:43:21.580Z,101.50
2018-04-02T07:45:49.144Z,107.20
2018-04-02T07:48:16.772Z,113.43
2018-04-02T07:50:44.332Z,130.17
2018-04-02T07:53:11.900Z,153.17
2018-04-02T07:55:39.518Z,158.07
2018-04-02T07:58:07.132Z,165.97
2018-04-02T08:00:34.713Z,151.23
2018-04-02T08:03:02.272Z,145.07
2018-04-02T08:05:29.822Z,141.37
2018-04-02T08:07:57.412Z,137.63
2018-04-02T08:10:24.988Z,118.97
2018-04-02T08:12:52.568Z,114.90
2018-04-02T08:15:20.213Z,110.93
2018-04-02T08:17:47.779Z,105.10
2018-04-02T08:20:15.374Z,103.57
2018-04-02T08:22:42.977Z,104.97
2018-04-02T08:25:10.547Z,91.47
2018-04-02T08:27:38.097Z,101.87
2018-04-02T08:30:05.690Z,99.40
2018-04-02T08:32:33.298Z,95.73
2018-04-02T08:35:01.252Z,93.40
2018-04-02T08:37:28.795Z,91.90
2018-04-02T08:39:56.345Z,90.27
2018-04-02T08:42:23.919Z,85.13
2018-04-02T08:44:51.524Z,90.30
2018-04-02T08:47:19.084Z,87.20
2018-04-02T08:49:46.641Z,83.40
2018-04-02T08:52:14.237Z,87.07
2018-04-02T08:54:41.785Z,89.63
2018-04-02T08:57:09.334Z,83.83
2018-04-02T08:59:37.280Z,83.63
2018-04-02T09:02:04.832Z,79.00
2018-04-02T09:04:32.387Z,77.00
2018-04-02T09:07:00.333Z,80.60
2018-04-02T09:09:27.886Z,88.30
2018-04-02T09:11:55.431Z,78.70
2018-04-02T09:14:23.014Z,82.63
2018-04-02T09:16:50.643Z,87.00
2018-04-02T09:19:18.192Z,77.60
2018-04-02T09:21:45.732Z,76.13
2018-04-02T09:24:13.730Z,70.60
2018-04-02T09:26:41.305Z,75.20
2018-04-02T09:29:08.872Z,73.50
2018-04-02T09:31:36.445Z,71.20
2018-04-02T09:34:04.030Z,68.40
2018-04-02T09:36:32.008Z,71.13
2018-04-02T09:38:59.554Z,65.10
2018-04-02T09:41:27.128Z,69.83
2018-04-02T09:43:54.710Z,73.07
2018-04-02T09:46:22.269Z,72.03
2018-04-02T09:48:49.849Z,72.90
2018-04-02T09:51:17.423Z,77.40
2018-04-02T09:53:45.019Z,77.20
2018-04-02T09:56:12.569Z,74.57
2018-04-02T09:58:40.127Z,72.57
2018-04-02T10:01:07.716Z,80.60
2018-04-02T10:03:39.282Z,75.10
2018-04-02T10:06:06.881Z,72.13
2018-04-02T10:08:34.426Z,66.27
2018-04-02T10:11:02.011Z,65.67
2018-04-02T10:13:29.585Z,70.00
2018-04-02T10:15:57.132Z,73.67
2018-04-02T10:18:24.737Z,68.13
2018-04-02T10:20:52.288Z,72.60
2018-04-02T10:23:19.827Z,70.23
2018-04-02T10:25:47.442Z,79.90
2018-04-02T10:28:15.043Z,72.50
2018-04-02T10:30:42.584Z,69.97
2018-04-02T10:33:10.168Z,68.33
2018-04-02T10:35:37.724Z,67.03
2018-04-02T10:38:05.345Z,69.53
2018-04-02T10:40:32.894Z,66.63
2018-04-02T10:43:00.452Z,67.93
2018-04-02T10:45:28.042Z,65.77
2018-04-02T10:47:55.608Z,63.73
2018-04-02T10:50:23.206Z,62.60
2018-04-02T10:52:50.749Z,64.50
2018-04-02T10:55:18.300Z,65.93
2018-04-02T10:57:45.876Z,58.43
2018-04-02T11:00:13.443Z,57.60
2018-04-02T11:02:41.049Z,58.00
2018-04-02T11:05:08.596Z,51.87
2018-04-02T11:07:36.155Z,56.97
2018-04-02T11:10:03.752Z,50.83
2018-04-02T11:12:31.392Z,52.20
2018-04-02T11:14:58.958Z,48.17
2018-04-02T11:17:26.545Z,49.80
2018-04-02T11:19:54.116Z,49.63
2018-04-02T11:22:21.717Z,49.00
2018-04-02T11:24:49.282Z,47.03
2018-04-02T11:27:16.841Z,47.10
2018-04-02T11:29:44.577Z,44.83
2018-04-02T11:32:12.136Z,43.93
2018-04-02T11:34:39.688Z,45.97
2018-04-02T11:37:07.270Z,42.40
2018-04-02T11:39:34.825Z,42.87
2018-04-02T11:42:02.413Z,42.03
2018-04-02T11:44:29.959Z,42.83
2018-04-02T11:46:57.589Z,41.30
2018-04-02T11:49:25.140Z,38.50
2018-04-02T11:51:52.687Z,40.50
2018-04-02T11:54:20.305Z,40.70
2018-04-02T11:56:47.861Z,42.13
2018-04-02T11:59:15.477Z,42.73
2018-04-02T12:01:45.219Z,38.73
2018-04-02T12:04:12.849Z,38.07
2018-04-02T12:06:40.415Z,37.03
2018-04-02T12:09:08.413Z,32.17
2018-04-02T12:11:35.969Z,34.63
2018-04-02T12:14:03.559Z,35.70
2018-04-02T12:16:31.165Z,32.10
2018-04-02T12:18:58.723Z,36.10
2018-04-02T12:21:26.286Z,29.03
2018-04-02T12:23:53.874Z,24.00
2018-04-02T12:26:21.490Z,24.67
2018-04-02T12:28:49.125Z,24.40
2018-04-02T12:31:16.740Z,21.70
2018-04-02T12:33:44.349Z,23.93
2018-04-02T12:36:12.065Z,24.10
2018-04-02T12:38:39.664Z,22.60
2018-04-02T12:41:07.979Z,28.37
2018-04-02T12:43:35.525Z,30.03
2018-04-02T12:46:03.104Z,23.77
2018-04-02T12:48:31.061Z,29.77
2018-04-02T12:50:58.605Z,24.77
2018-04-02T12:53:26.152Z,26.60
2018-04-02T12:55:53.734Z,25.87
2018-04-02T12:58:21.465Z,25.17
2018-04-02T13:00:49.016Z,24.70
2018-04-02T13:03:16.577Z,26.60
2018-04-02T13:05:44.531Z,25.33
2018-04-02T13:08:12.088Z,22.20
2018-04-02T13:10:39.682Z,21.90
2018-04-02T13:13:07.286Z,23.47
2018-04-02T13:15:34.836Z,23.93
2018-04-02T13:18:02.397Z,23.30
2018-04-02T13:20:30.013Z,24.27
2018-04-02T13:22:57.564Z,22.00
2018-04-02T13:25:25.120Z,22.07
2018-04-02T13:27:52.713Z,22.97
2018-04-02T13:30:20.261Z,21.97
2018-04-02T13:32:47.819Z,21.50
2018-04-02T13:35:15.415Z,19.03
2018-04-02T13:37:42.982Z,20.67
2018-04-02T13:40:10.941Z,21.60
2018-04-02T13:42:38.711Z,20.50
2018-04-02T13:45:06.312Z,20.40
2018-04-02T13:47:33.879Z,21.43
2018-04-02T13:50:01.443Z,22.40
2018-04-02T13:52:29.026Z,17.90
2018-04-02T13:54:56.591Z,18.83
2018-04-02T13:57:24.191Z,14.93
2018-04-02T13:59:52.091Z,17.00
2018-04-02T14:02:19.631Z,17.13
2018-04-02T14:04:47.181Z,14.77
2018-04-02T14:07:14.769Z,14.33
2018-04-02T14:09:42.332Z,17.53
2018-04-02T14:12:09.927Z,31.10
2018-04-02T14:14:37.591Z,15.10
2018-04-02T14:17:05.166Z,11.00
2018-04-02T14:19:33.169Z,12.83
2018-04-02T14:22:00.711Z,11.90
2018-04-02T14:24:28.270Z,14.63
2018-04-02T14:26:55.859Z,15.13
2018-04-02T14:29:23.451Z,13.03
2018-04-02T14:31:51.063Z,10.63
2018-04-02T14:34:18.612Z,13.90
2018-04-02T14:36:46.171Z,14.23
2018-04-02T14:39:13.749Z,39.23
2018-04-02T14:41:41.297Z,14.70
2018-04-02T14:44:08.886Z,15.10
2018-04-02T14:46:36.446Z,59.40
2018-04-02T14:49:03.997Z,16.10
2018-04-02T14:51:31.625Z,18.97
2018-04-02T14:53:59.167Z,11.73
2018-04-02T14:56:26.717Z,14.43
2018-04-02T14:58:54.284Z,12.33
2018-04-02T15:01:21.851Z,15.77
2018-04-02T15:03:49.461Z,13.60
2018-04-02T15:06:17.022Z,22.13
2018-04-02T15:08:44.568Z,10.90
2018-04-02T15:11:12.306Z,10.30
2018-04-02T15:13:39.869Z,9.60
2018-04-02T15:16:07.421Z,14.20
2018-04-02T15:18:35.006Z,9.83
2018-04-02T15:21:02.577Z,9.83
2018-04-02T15:23:30.106Z,9.30
2018-04-02T15:25:57.704Z,11.23
2018-04-02T15:28:25.257Z,9.47
2018-04-02T15:30:52.823Z,10.47
2018-04-02T15:33:20.400Z,12.53
2018-04-02T15:35:47.940Z,11.27
2018-04-02T15:38:15.916Z,10.10
2018-04-02T15:40:43.472Z,9.87
2018-04-02T15:43:11.023Z,10.27
2018-04-02T15:45:38.640Z,10.50
2018-04-02T15:48:06.188Z,10.13
2018-04-02T15:50:33.752Z,8.70
2018-04-02T15:53:02.275Z,11.60
2018-04-02T15:55:29.881Z,10.73
2018-04-02T15:57:57.418Z,11.90
2018-04-02T16:00:24.950Z,9.97
2018-04-02T16:02:52.561Z,9.77
2018-04-02T16:05:20.103Z,9.37
2018-04-02T16:07:47.768Z,8.93
2018-04-02T16:10:15.691Z,15.97
2018-04-02T16:12:43.236Z,9.40
2018-04-02T16:15:10.788Z,9.87
2018-04-02T16:17:38.359Z,10.83
2018-04-02T16:20:05.921Z,9.70
2018-04-02T16:22:33.515Z,9.50
2018-04-02T16:25:01.070Z,9.67
2018-04-02T16:27:28.628Z,10.47
2018-04-02T16:29:56.200Z,9.60
2018-04-02T16:32:24.179Z,11.70
2018-04-02T16:34:51.715Z,10.47
2018-04-02T16:37:19.274Z,11.03
2018-04-02T16:39:46.855Z,9.60
2018-04-02T16:42:14.763Z,9.67
2018-04-02T16:44:42.330Z,9.60
2018-04-02T16:47:09.863Z,8.30
2018-04-02T16:49:37.434Z,10.00
2018-04-02T16:52:04.985Z,8.97
2018-04-02T16:54:32.600Z,9.00
2018-04-02T16:57:00.175Z,9.40
2018-04-02T16:59:27.925Z,9.90
2018-04-02T17:01:55.464Z,9.10
2018-04-02T17:04:23.017Z,9.33
2018-04-02T17:06:50.639Z,9.43
2018-04-02T17:09:18.180Z,9.60
2018-04-02T17:11:45.738Z,8.33
2018-04-02T17:14:13.335Z,8.13
2018-04-02T17:16:40.893Z,8.80
2018-04-02T17:19:08.456Z,7.30
2018-04-02T17:21:36.076Z,8.27
2018-04-02T17:24:03.636Z,8.50
2018-04-02T17:26:31.190Z,7.40
2018-04-02T17:28:58.754Z,8.80
2018-04-02T17:31:27.931Z,8.33
2018-04-02T17:33:55.505Z,20.43
2018-04-02T17:36:23.053Z,12.80
2018-04-02T17:38:50.670Z,10.30
2018-04-02T17:41:18.229Z,10.90
2018-04-02T17:43:45.788Z,12.97
2018-04-02T17:46:13.412Z,11.70
2018-04-02T17:48:40.964Z,10.13
2018-04-02T17:51:08.513Z,9.80
2018-04-02T17:53:36.093Z,9.77
2018-04-02T17:56:03.735Z,8.17
2018-04-02T17:58:31.256Z,8.33
2018-04-02T18:00:58.897Z,10.03
2018-04-02T18:03:26.457Z,10.40
2018-04-02T18:05:53.991Z,7.80
2018-04-02T18:08:21.669Z,8.97
2018-04-02T18:10:49.269Z,8.10
2018-04-02T18:13:16.832Z,9.43
2018-04-02T18:15:44.371Z,8.40
2018-04-02T18:18:11.944Z,9.33
2018-04-02T18:20:39.499Z,9.93
2018-04-02T18:23:07.097Z,8.17
2018-04-02T18:25:34.644Z,12.90
2018-04-02T18:28:02.242Z,11.87
2018-04-02T18:30:29.868Z,12.20
2018-04-02T18:32:57.419Z,8.03
2018-04-02T18:35:25.019Z,16.40
2018-04-02T18:37:52.957Z,11.03
2018-04-02T18:40:20.597Z,11.10
2018-04-02T18:42:48.269Z,9.57
2018-04-02T18:45:16.026Z,9.90
2018-04-02T18:47:43.635Z,10.30
2018-04-02T18:50:11.240Z,7.33
2018-04-02T18:52:38.974Z,9.03
2018-04-02T18:55:06.724Z,7.97
2018-04-02T18:57:34.668Z,8.03
2018-04-02T19:00:02.243Z,10.60
2018-04-02T19:02:29.799Z,9.83
2018-04-02T19:04:57.428Z,9.60
2018-04-02T19:07:24.974Z,13.30
2018-04-02T19:09:52.894Z,8.70
2018-04-02T19:12:20.921Z,9.80
2018-04-02T19:14:48.673Z,8.50
2018-04-02T19:17:16.266Z,9.53
2018-04-02T19:19:44.126Z,9.53
2018-04-02T19:22:11.978Z,11.07
2018-04-02T19:24:39.779Z,9.47
2018-04-02T19:27:07.358Z,9.30
2018-04-02T19:29:35.233Z,9.73
2018-04-02T19:32:03.096Z,12.77
2018-04-02T19:34:30.674Z,8.37
2018-04-02T19:36:58.466Z,10.33
2018-04-02T19:39:26.250Z,12.57
2018-04-02T19:41:53.985Z,13.40
2018-04-02T19:44:21.588Z,13.40
2018-04-02T19:46:49.345Z,14.27
2018-04-02T19:49:17.077Z,14.00
2018-04-02T19:51:44.829Z,12.53
2018-04-02T19:54:12.669Z,12.60
2018-04-02T19:56:40.219Z,10.80
2018-04-02T19:59:07.777Z,11.70
2018-04-02T20:01:35.367Z,12.07
2018-04-02T20:04:02.911Z,12.23
2018-04-02T20:06:30.513Z,13.10
2018-04-02T20:08:58.175Z,12.73
2018-04-02T20:11:25.715Z,12.40
2018-04-02T20:13:53.293Z,11.43
2018-04-02T20:16:20.899Z,10.40
2018-04-02T20:18:48.441Z,10.87
2018-04-02T20:21:15.987Z,10.50
2018-04-02T20:23:43.939Z,11.40
2018-04-02T20:26:11.490Z,10.67
2018-04-02T20:28:39.057Z,11.13
2018-04-02T20:31:06.684Z,10.00
2018-04-02T20:33:34.233Z,10.20
2018-04-02T20:36:01.766Z,10.27
2018-04-02T20:38:29.356Z,9.17
2018-04-02T20:40:56.933Z,10.60
2018-04-02T20:43:24.556Z,14.17
2018-04-02T20:45:52.118Z,10.00
2018-04-02T20:48:19.669Z,9.10
2018-04-02T20:50:47.281Z,8.07
2018-04-02T20:53:14.820Z,9.13
2018-04-02T20:55:42.360Z,9.23
2018-04-02T20:58:09.976Z,8.87
2018-04-02T21:00:37.507Z,8.60
2018-04-02T21:03:05.034Z,8.83
2018-04-02T21:05:32.663Z,7.97
2018-04-02T21:08:00.217Z,8.03
2018-04-02T21:10:27.763Z,8.73
2018-04-02T21:12:55.361Z,8.27
2018-04-02T21:15:22.915Z,8.97
2018-04-02T21:17:50.464Z,8.50
2018-04-02T21:20:18.061Z,8.20
2018-04-02T21:22:45.634Z,9.37
2018-04-02T21:25:13.167Z,8.87
2018-04-02T21:27:40.750Z,8.43
2018-04-02T21:30:08.297Z,9.27
2018-04-02T21:32:36.284Z,8.23
2018-04-02T21:35:03.833Z,8.57
2018-04-02T21:37:31.372Z,9.23
2018-04-02T21:39:58.991Z,10.77
2018-04-02T21:42:26.541Z,9.90
2018-04-02T21:44:54.090Z,9.47
2018-04-02T21:47:21.692Z,9.13
2018-04-02T21:49:49.236Z,9.70
2018-04-02T21:52:16.785Z,8.47
2018-04-02T21:54:44.371Z,9.27
2018-04-02T21:57:11.932Z,8.93
2018-04-02T21:59:39.627Z,9.60
2018-04-02T22:02:07.205Z,9.53
2018-04-02T22:04:34.753Z,9.10
2018-04-02T22:07:04.369Z,9.03
2018-04-02T22:09:31.952Z,10.07
2018-04-02T22:11:59.504Z,8.70
2018-04-02T22:14:27.107Z,9.37
2018-04-02T22:16:54.653Z,8.43
2018-04-02T22:19:22.201Z,9.10
2018-04-02T22:21:50.587Z,8.80
2018-04-02T22:24:23.988Z,9.00
2018-04-02T22:26:52.737Z,8.77
2018-04-02T22:29:22.173Z,8.60
2018-04-02T22:31:49.729Z,8.30
2018-04-02T22:34:17.801Z,7.60
2018-04-02T22:36:45.372Z,7.97
2018-04-02T22:39:12.947Z,7.77
2018-04-02T22:41:40.531Z,7.77
2018-04-02T22:44:08.067Z,7.63
2018-04-02T22:46:35.612Z,8.57
2018-04-02T22:49:03.215Z,6.30
2018-04-02T22:51:30.764Z,6.60
2018-04-02T22:53:58.316Z,6.17
2018-04-02T22:56:26.285Z,6.23
2018-04-02T22:58:53.996Z,6.60
2018-04-02T23:01:21.531Z,6.10
2018-04-02T23:03:49.440Z,6.13
2018-04-02T23:06:16.976Z,6.50
2018-04-02T23:08:44.519Z,6.23
2018-04-02T23:11:12.122Z,7.70
2018-04-02T23:13:39.676Z,6.40
2018-04-02T23:16:07.221Z,7.03
2018-04-02T23:18:34.800Z,6.37
2018-04-02T23:21:02.330Z,6.03
2018-04-02T23:23:29.894Z,7.20
2018-04-02T23:25:57.447Z,6.57
2018-04-02T23:28:25.048Z,6.60
2018-04-02T23:30:52.575Z,6.30
2018-04-02T23:33:20.129Z,7.10
2018-04-02T23:35:47.737Z,6.90
2018-04-02T23:38:15.348Z,6.87
2018-04-02T23:40:42.904Z,7.33
2018-04-02T23:43:10.468Z,7.10
2018-04-02T23:45:38.038Z,6.80
2018-04-02T23:48:05.649Z,7.70
2018-04-02T23:50:33.210Z,7.30
2018-04-02T23:53:00.744Z,7.73
2018-04-02T23:55:28.344Z,7.73
2018-04-02T23:57:55.878Z,7.27
